sensor_id;sensor_type;location;lat;lon;timestamp;pressure;altitude;pressure_sealevel;temperature;humidity
63903;BME280;50072;50.678;13.938;2023-04-08T00:00:11;99782.44;;;4.71;95.58
63903;BME280;50072;50.678;13.938;2023-04-08T00:03:00;99783.31;;;4.68;95.29
63903;BME280;50072;50.678;13.938;2023-04-08T00:05:28;99781.53;;;4.65;95.40
63903;BME280;50072;50.678;13.938;2023-04-08T00:07:57;99776.25;;;4.62;94.89
63903;BME280;50072;50.678;13.938;2023-04-08T00:10:32;99775.38;;;4.60;94.50
63903;BME280;50072;50.678;13.938;2023-04-08T00:12:59;99768.28;;;4.58;93.74
63903;BME280;50072;50.678;13.938;2023-04-08T00:15:31;99766.53;;;4.52;93.86
63903;BME280;50072;50.678;13.938;2023-04-08T00:18:10;99765.63;;;4.45;96.15
63903;BME280;50072;50.678;13.938;2023-04-08T00:20:37;99769.16;;;4.37;96.51
63903;BME280;50072;50.678;13.938;2023-04-08T00:23:05;99776.22;;;4.38;98.32
63903;BME280;50072;50.678;13.938;2023-04-08T00:25:40;99770.06;;;4.43;97.46
63903;BME280;50072;50.678;13.938;2023-04-08T00:28:06;99769.16;;;4.34;97.43
63903;BME280;50072;50.678;13.938;2023-04-08T00:30:35;99760.28;;;4.19;98.04
63903;BME280;50072;50.678;13.938;2023-04-08T00:33:09;99767.34;;;4.14;98.87
63903;BME280;50072;50.678;13.938;2023-04-08T00:35:38;99772.63;;;4.14;99.08
63903;BME280;50072;50.678;13.938;2023-04-08T00:38:08;99774.41;;;4.15;99.72
63903;BME280;50072;50.678;13.938;2023-04-08T00:40:36;99782.34;;;4.13;99.20
63903;BME280;50072;50.678;13.938;2023-04-08T00:43:04;99767.31;;;4.11;100.00
63903;BME280;50072;50.678;13.938;2023-04-08T00:45:38;99774.38;;;4.06;98.37
63903;BME280;50072;50.678;13.938;2023-04-08T00:48:05;99767.28;;;4.02;98.57
63903;BME280;50072;50.678;13.938;2023-04-08T00:50:39;99770.84;;;4.01;99.09
63903;BME280;50072;50.678;13.938;2023-04-08T00:53:16;99774.34;;;3.96;98.12
63903;BME280;50072;50.678;13.938;2023-04-08T00:55:44;99773.44;;;3.96;98.22
63903;BME280;50072;50.678;13.938;2023-04-08T00:58:13;99777.00;;;4.00;97.90
63903;BME280;50072;50.678;13.938;2023-04-08T01:00:51;99772.56;;;3.98;97.17
63903;BME280;50072;50.678;13.938;2023-04-08T01:03:50;99781.44;;;4.01;96.72
63903;BME280;50072;50.678;13.938;2023-04-08T01:09:44;99771.72;;;4.04;97.44
63903;BME280;50072;50.678;13.938;2023-04-08T01:12:20;99762.03;;;4.08;97.12
63903;BME280;50072;50.678;13.938;2023-04-08T01:14:49;99769.97;;;4.12;97.48
63903;BME280;50072;50.678;13.938;2023-04-08T01:17:22;99772.63;;;4.17;97.97
63903;BME280;50072;50.678;13.938;2023-04-08T01:19:55;99769.97;;;4.22;98.17
63903;BME280;50072;50.678;13.938;2023-04-08T01:25:30;99764.69;;;4.15;98.18
63903;BME280;50072;50.678;13.938;2023-04-08T01:28:03;99761.13;;;4.06;98.10
63903;BME280;50072;50.678;13.938;2023-04-08T01:30:45;99760.25;;;4.04;98.80
63903;BME280;50072;50.678;13.938;2023-04-08T01:33:16;99770.84;;;4.07;99.05
63903;BME280;50072;50.678;13.938;2023-04-08T01:35:44;99764.69;;;4.12;98.69
63903;BME280;50072;50.678;13.938;2023-04-08T01:38:15;99765.53;;;4.10;98.64
63903;BME280;50072;50.678;13.938;2023-04-08T01:40:45;99768.19;;;4.07;99.04
63903;BME280;50072;50.678;13.938;2023-04-08T01:43:16;99769.06;;;4.03;99.06
63903;BME280;50072;50.678;13.938;2023-04-08T01:45:45;99768.19;;;4.08;99.89
63903;BME280;50072;50.678;13.938;2023-04-08T01:48:13;99765.53;;;4.10;99.18
63903;BME280;50072;50.678;13.938;2023-04-08T01:50:42;99758.50;;;4.12;98.87
63903;BME280;50072;50.678;13.938;2023-04-08T01:53:14;99758.47;;;4.09;98.98
63903;BME280;50072;50.678;13.938;2023-04-08T01:55:48;99761.16;;;4.12;99.36
63903;BME280;50072;50.678;13.938;2023-04-08T01:58:31;99768.19;;;4.14;99.95
63903;BME280;50072;50.678;13.938;2023-04-08T02:01:10;99755.88;;;4.20;99.65
63903;BME280;50072;50.678;13.938;2023-04-08T02:03:41;99749.69;;;4.22;99.73
63903;BME280;50072;50.678;13.938;2023-04-08T02:06:14;99748.78;;;4.22;100.00
63903;BME280;50072;50.678;13.938;2023-04-08T02:08:42;99763.81;;;4.21;100.00
63903;BME280;50072;50.678;13.938;2023-04-08T02:11:14;99752.34;;;4.24;100.00
63903;BME280;50072;50.678;13.938;2023-04-08T02:13:44;99755.88;;;4.26;100.00
63903;BME280;50072;50.678;13.938;2023-04-08T02:16:18;99762.06;;;4.29;100.00
63903;BME280;50072;50.678;13.938;2023-04-08T02:19:01;99772.66;;;4.36;100.00
63903;BME280;50072;50.678;13.938;2023-04-08T02:21:38;99762.97;;;4.38;98.28
63903;BME280;50072;50.678;13.938;2023-04-08T02:24:16;99763.84;;;4.43;98.32
63903;BME280;50072;50.678;13.938;2023-04-08T02:26:44;99765.63;;;4.44;98.45
63903;BME280;50072;50.678;13.938;2023-04-08T02:29:14;99763.84;;;4.46;98.42
63903;BME280;50072;50.678;13.938;2023-04-08T02:31:45;99765.59;;;4.35;98.99
63903;BME280;50072;50.678;13.938;2023-04-08T02:34:13;99770.03;;;4.29;99.76
63903;BME280;50072;50.678;13.938;2023-04-08T02:36:44;99773.53;;;4.25;99.39
63903;BME280;50072;50.678;13.938;2023-04-08T02:39:14;99778.84;;;4.31;100.00
63903;BME280;50072;50.678;13.938;2023-04-08T02:41:43;99775.31;;;4.32;100.00
63903;BME280;50072;50.678;13.938;2023-04-08T02:44:10;99777.97;;;4.36;100.00
63903;BME280;50072;50.678;13.938;2023-04-08T02:46:44;99774.44;;;4.38;99.64
63903;BME280;50072;50.678;13.938;2023-04-08T02:49:13;99774.44;;;4.46;100.00
63903;BME280;50072;50.678;13.938;2023-04-08T02:51:44;99776.22;;;4.53;100.00
63903;BME280;50072;50.678;13.938;2023-04-08T02:54:15;99778.88;;;4.52;98.72
63903;BME280;50072;50.678;13.938;2023-04-08T02:56:43;99777.13;;;4.51;96.15
63903;BME280;50072;50.678;13.938;2023-04-08T02:59:16;99792.16;;;4.56;97.49
63903;BME280;50072;50.678;13.938;2023-04-08T03:01:44;99785.97;;;4.62;96.42
63903;BME280;50072;50.678;13.938;2023-04-08T03:04:14;99780.66;;;4.71;93.51
63903;BME280;50072;50.678;13.938;2023-04-08T03:06:43;99776.25;;;4.87;93.69
63903;BME280;50072;50.678;13.938;2023-04-08T03:09:10;99776.25;;;4.93;93.75
63903;BME280;50072;50.678;13.938;2023-04-08T03:11:44;99779.78;;;4.95;94.45
63903;BME280;50072;50.678;13.938;2023-04-08T03:14:15;99770.06;;;4.97;92.90
63903;BME280;50072;50.678;13.938;2023-04-08T03:16:43;99774.47;;;5.08;93.52
63903;BME280;50072;50.678;13.938;2023-04-08T03:19:15;99775.34;;;5.11;92.32
63903;BME280;50072;50.678;13.938;2023-04-08T03:21:42;99773.56;;;5.19;92.61
63903;BME280;50072;50.678;13.938;2023-04-08T03:24:09;99774.44;;;5.26;90.98
63903;BME280;50072;50.678;13.938;2023-04-08T03:26:35;99779.75;;;5.26;91.46
63903;BME280;50072;50.678;13.938;2023-04-08T03:29:03;99775.31;;;5.28;90.53
63903;BME280;50072;50.678;13.938;2023-04-08T03:31:44;99765.59;;;5.30;91.36
63903;BME280;50072;50.678;13.938;2023-04-08T03:34:09;99768.25;;;5.29;92.06
63903;BME280;50072;50.678;13.938;2023-04-08T03:36:35;99776.22;;;5.24;91.00
63903;BME280;50072;50.678;13.938;2023-04-08T03:39:09;99766.47;;;5.32;89.53
63903;BME280;50072;50.678;13.938;2023-04-08T03:41:44;99763.84;;;5.26;89.75
63903;BME280;50072;50.678;13.938;2023-04-08T03:44:11;99765.59;;;5.35;90.56
63903;BME280;50072;50.678;13.938;2023-04-08T03:46:44;99777.97;;;5.34;89.95
63903;BME280;50072;50.678;13.938;2023-04-08T03:49:14;99774.44;;;5.32;90.64
63903;BME280;50072;50.678;13.938;2023-04-08T03:51:42;99777.09;;;5.28;90.38
63903;BME280;50072;50.678;13.938;2023-04-08T03:54:14;99781.53;;;5.30;90.68
63903;BME280;50072;50.678;13.938;2023-04-08T03:56:43;99784.19;;;5.29;91.69
63903;BME280;50072;50.678;13.938;2023-04-08T03:59:13;99799.22;;;5.34;90.27
63903;BME280;50072;50.678;13.938;2023-04-08T04:01:44;99794.78;;;5.30;90.35
63903;BME280;50072;50.678;13.938;2023-04-08T04:04:11;99803.63;;;5.34;88.63
63903;BME280;50072;50.678;13.938;2023-04-08T04:06:40;99809.81;;;5.31;88.49
63903;BME280;50072;50.678;13.938;2023-04-08T04:09:09;99804.53;;;5.34;87.85
63903;BME280;50072;50.678;13.938;2023-04-08T04:11:43;99810.69;;;5.40;89.37
63903;BME280;50072;50.678;13.938;2023-04-08T04:14:15;99800.06;;;5.38;88.25
63903;BME280;50072;50.678;13.938;2023-04-08T04:16:41;99810.66;;;5.44;89.63
63903;BME280;50072;50.678;13.938;2023-04-08T04:19:14;99804.50;;;5.44;91.16
63903;BME280;50072;50.678;13.938;2023-04-08T04:21:46;99803.59;;;5.46;89.02
63903;BME280;50072;50.678;13.938;2023-04-08T04:24:14;99814.22;;;5.46;89.46
63903;BME280;50072;50.678;13.938;2023-04-08T04:26:40;99814.22;;;5.46;89.42
63903;BME280;50072;50.678;13.938;2023-04-08T04:29:09;99805.38;;;5.46;88.51
63903;BME280;50072;50.678;13.938;2023-04-08T04:31:36;99801.81;;;5.51;89.39
63903;BME280;50072;50.678;13.938;2023-04-08T04:34:11;99808.00;;;5.55;89.84
63903;BME280;50072;50.678;13.938;2023-04-08T04:36:44;99810.66;;;5.55;89.61
63903;BME280;50072;50.678;13.938;2023-04-08T04:39:10;99805.34;;;5.64;90.19
63903;BME280;50072;50.678;13.938;2023-04-08T04:41:43;99798.28;;;5.60;90.19
63903;BME280;50072;50.678;13.938;2023-04-08T04:44:14;99815.06;;;5.59;89.69
63903;BME280;50072;50.678;13.938;2023-04-08T04:46:41;99811.53;;;5.57;90.33
63903;BME280;50072;50.678;13.938;2023-04-08T04:49:14;99818.63;;;5.64;89.56
63903;BME280;50072;50.678;13.938;2023-04-08T04:51:45;99825.69;;;5.61;90.17
63903;BME280;50072;50.678;13.938;2023-04-08T04:54:14;99828.34;;;5.64;90.14
63903;BME280;50072;50.678;13.938;2023-04-08T04:56:45;99842.50;;;5.64;90.24
63903;BME280;50072;50.678;13.938;2023-04-08T04:59:12;99823.91;;;5.70;90.42
63903;BME280;50072;50.678;13.938;2023-04-08T05:01:44;99817.72;;;5.64;90.93
63903;BME280;50072;50.678;13.938;2023-04-08T05:04:15;99811.50;;;5.66;91.32
63903;BME280;50072;50.678;13.938;2023-04-08T05:06:44;99814.16;;;5.68;90.26
63903;BME280;50072;50.678;13.938;2023-04-08T05:09:14;99826.53;;;5.74;90.05
63903;BME280;50072;50.678;13.938;2023-04-08T05:11:43;99823.88;;;5.77;90.47
63903;BME280;50072;50.678;13.938;2023-04-08T05:14:14;99815.88;;;5.80;90.57
63903;BME280;50072;50.678;13.938;2023-04-08T05:16:40;99832.72;;;5.85;91.11
63903;BME280;50072;50.678;13.938;2023-04-08T05:19:14;99839.75;;;5.95;90.32
63903;BME280;50072;50.678;13.938;2023-04-08T05:21:44;99830.00;;;5.94;88.88
63903;BME280;50072;50.678;13.938;2023-04-08T05:24:17;99834.41;;;5.97;89.18
63903;BME280;50072;50.678;13.938;2023-04-08T05:26:44;99834.44;;;5.95;89.45
63903;BME280;50072;50.678;13.938;2023-04-08T05:29:11;99838.88;;;5.98;90.21
63903;BME280;50072;50.678;13.938;2023-04-08T05:31:44;99844.19;;;6.02;90.45
63903;BME280;50072;50.678;13.938;2023-04-08T05:34:10;99863.63;;;6.11;90.92
63903;BME280;50072;50.678;13.938;2023-04-08T05:36:44;99859.22;;;6.16;90.74
63903;BME280;50072;50.678;13.938;2023-04-08T05:39:14;99864.50;;;6.13;89.60
63903;BME280;50072;50.678;13.938;2023-04-08T05:41:42;99863.66;;;6.09;90.48
63903;BME280;50072;50.678;13.938;2023-04-08T05:44:11;99874.28;;;6.06;90.05
63903;BME280;50072;50.678;13.938;2023-04-08T05:46:40;99869.88;;;6.00;90.54
63903;BME280;50072;50.678;13.938;2023-04-08T05:49:06;99866.34;;;5.86;91.65
63903;BME280;50072;50.678;13.938;2023-04-08T05:51:34;99867.25;;;5.80;92.78
63903;BME280;50072;50.678;13.938;2023-04-08T05:54:01;99868.09;;;5.87;92.25
63903;BME280;50072;50.678;13.938;2023-04-08T05:56:27;99869.84;;;5.94;92.36
63903;BME280;50072;50.678;13.938;2023-04-08T05:58:54;99860.13;;;5.99;91.20
63903;BME280;50072;50.678;13.938;2023-04-08T06:01:20;99870.75;;;6.02;91.63
63903;BME280;50072;50.678;13.938;2023-04-08T06:03:48;99868.09;;;6.02;91.76
63903;BME280;50072;50.678;13.938;2023-04-08T06:06:16;99869.81;;;6.13;91.41
63903;BME280;50072;50.678;13.938;2023-04-08T06:08:43;99871.59;;;6.14;91.76
63903;BME280;50072;50.678;13.938;2023-04-08T06:11:10;99871.56;;;6.23;89.78
63903;BME280;50072;50.678;13.938;2023-04-08T06:13:38;99868.03;;;6.27;88.69
63903;BME280;50072;50.678;13.938;2023-04-08T06:16:13;99873.25;;;6.46;88.30
63903;BME280;50072;50.678;13.938;2023-04-08T06:18:41;99859.84;;;6.61;89.42
63903;BME280;50072;50.678;13.938;2023-04-08T06:21:09;99874.81;;;6.79;87.61
63903;BME280;50072;50.678;13.938;2023-04-08T06:23:34;99880.91;;;6.95;88.07
63903;BME280;50072;50.678;13.938;2023-04-08T06:26:01;99878.13;;;7.12;87.67
63903;BME280;50072;50.678;13.938;2023-04-08T06:28:28;99871.00;;;7.19;86.05
63903;BME280;50072;50.678;13.938;2023-04-08T06:30:56;99882.34;;;7.38;85.19
63903;BME280;50072;50.678;13.938;2023-04-08T06:33:22;99881.38;;;7.47;84.34
63903;BME280;50072;50.678;13.938;2023-04-08T06:35:49;99888.47;;;7.49;84.26
63903;BME280;50072;50.678;13.938;2023-04-08T06:38:18;99897.38;;;7.47;82.88
63903;BME280;50072;50.678;13.938;2023-04-08T06:40:44;99911.50;;;7.55;83.84
63903;BME280;50072;50.678;13.938;2023-04-08T06:43:11;99914.13;;;7.61;83.50
63903;BME280;50072;50.678;13.938;2023-04-08T06:45:38;99914.13;;;7.58;82.84
63903;BME280;50072;50.678;13.938;2023-04-08T06:48:04;99916.84;;;7.55;83.60
63903;BME280;50072;50.678;13.938;2023-04-08T06:50:32;99919.50;;;7.53;83.49
63903;BME280;50072;50.678;13.938;2023-04-08T06:52:58;99915.06;;;7.57;84.06
63903;BME280;50072;50.678;13.938;2023-04-08T06:55:26;99914.03;;;7.70;83.57
63903;BME280;50072;50.678;13.938;2023-04-08T06:57:52;99926.41;;;7.77;83.59
63903;BME280;50072;50.678;13.938;2023-04-08T07:00:19;99930.88;;;7.75;84.31
63903;BME280;50072;50.678;13.938;2023-04-08T07:02:45;99934.41;;;7.76;84.19
63903;BME280;50072;50.678;13.938;2023-04-08T07:05:12;99944.16;;;7.78;84.59
63903;BME280;50072;50.678;13.938;2023-04-08T07:07:39;99949.41;;;7.86;84.68
63903;BME280;50072;50.678;13.938;2023-04-08T07:10:07;99949.38;;;7.89;84.25
63903;BME280;50072;50.678;13.938;2023-04-08T07:12:35;99951.97;;;7.97;84.55
63903;BME280;50072;50.678;13.938;2023-04-08T07:15:01;99953.81;;;7.89;84.54
63903;BME280;50072;50.678;13.938;2023-04-08T07:17:28;99953.81;;;7.89;83.71
63903;BME280;50072;50.678;13.938;2023-04-08T07:19:54;99961.81;;;7.90;83.47
63903;BME280;50072;50.678;13.938;2023-04-08T07:22:21;99965.34;;;7.94;84.07
63903;BME280;50072;50.678;13.938;2023-04-08T07:24:51;99971.56;;;7.93;83.77
63903;BME280;50072;50.678;13.938;2023-04-08T07:27:17;99962.72;;;7.91;84.66
63903;BME280;50072;50.678;13.938;2023-04-08T07:29:44;99969.72;;;8.00;83.70
63903;BME280;50072;50.678;13.938;2023-04-08T07:32:12;99978.66;;;7.94;83.52
63903;BME280;50072;50.678;13.938;2023-04-08T07:34:38;99986.69;;;7.92;84.05
63903;BME280;50072;50.678;13.938;2023-04-08T07:37:05;99984.91;;;7.90;83.79
63903;BME280;50072;50.678;13.938;2023-04-08T07:39:32;99984.03;;;7.91;84.84
63903;BME280;50072;50.678;13.938;2023-04-08T07:41:59;99992.06;;;7.83;84.71
63903;BME280;50072;50.678;13.938;2023-04-08T07:44:25;99991.16;;;7.87;85.48
63903;BME280;50072;50.678;13.938;2023-04-08T07:46:51;99991.03;;;8.01;85.13
63903;BME280;50072;50.678;13.938;2023-04-08T07:49:18;99991.84;;;8.06;84.10
63903;BME280;50072;50.678;13.938;2023-04-08T07:51:46;100004.31;;;8.04;83.70
63903;BME280;50072;50.678;13.938;2023-04-08T07:54:13;100001.63;;;8.07;82.79
63903;BME280;50072;50.678;13.938;2023-04-08T07:56:43;100012.47;;;7.86;82.89
63903;BME280;50072;50.678;13.938;2023-04-08T07:59:14;100002.81;;;7.71;82.71
63903;BME280;50072;50.678;13.938;2023-04-08T08:01:44;100016.16;;;7.69;82.45
63903;BME280;50072;50.678;13.938;2023-04-08T08:04:11;100012.50;;;7.83;82.94
63903;BME280;50072;50.678;13.938;2023-04-08T08:06:37;100015.09;;;7.92;82.40
63903;BME280;50072;50.678;13.938;2023-04-08T08:09:02;100015.91;;;8.00;77.38
63903;BME280;50072;50.678;13.938;2023-04-08T08:11:30;100031.81;;;8.12;77.40
63903;BME280;50072;50.678;13.938;2023-04-08T08:13:57;100030.88;;;8.15;76.41
63903;BME280;50072;50.678;13.938;2023-04-08T08:16:27;100037.03;;;8.22;76.80
63903;BME280;50072;50.678;13.938;2023-04-08T08:18:53;100033.50;;;8.21;76.49
63903;BME280;50072;50.678;13.938;2023-04-08T08:21:20;100042.47;;;8.12;76.17
63903;BME280;50072;50.678;13.938;2023-04-08T08:23:46;100046.94;;;8.07;75.67
63903;BME280;50072;50.678;13.938;2023-04-08T08:26:13;100045.16;;;8.08;76.57
63903;BME280;50072;50.678;13.938;2023-04-08T08:28:39;100040.78;;;8.04;75.29
63903;BME280;50072;50.678;13.938;2023-04-08T08:31:06;100046.19;;;7.93;74.95
63903;BME280;50072;50.678;13.938;2023-04-08T08:33:34;100055.03;;;7.98;75.92
63903;BME280;50072;50.678;13.938;2023-04-08T08:36:01;100055.00;;;8.03;76.65
63903;BME280;50072;50.678;13.938;2023-04-08T08:38:29;100059.38;;;8.08;76.06
63903;BME280;50072;50.678;13.938;2023-04-08T08:40:56;100061.88;;;8.28;75.93
63903;BME280;50072;50.678;13.938;2023-04-08T08:43:24;100064.34;;;8.50;74.40
63903;BME280;50072;50.678;13.938;2023-04-08T08:45:52;100058.00;;;8.65;74.17
63903;BME280;50072;50.678;13.938;2023-04-08T08:48:19;100068.63;;;8.67;70.52
63903;BME280;50072;50.678;13.938;2023-04-08T08:50:47;100070.31;;;8.75;71.30
63903;BME280;50072;50.678;13.938;2023-04-08T08:53:12;100071.09;;;8.85;70.66
63903;BME280;50072;50.678;13.938;2023-04-08T08:55:41;100075.50;;;8.88;70.22
63903;BME280;50072;50.678;13.938;2023-04-08T08:58:08;100071.09;;;8.87;71.07
63903;BME280;50072;50.678;13.938;2023-04-08T09:00:38;100080.06;;;8.79;70.82
63903;BME280;50072;50.678;13.938;2023-04-08T09:03:22;100073.84;;;8.76;70.79
63903;BME280;50072;50.678;13.938;2023-04-08T09:05:50;100079.97;;;8.86;72.22
63903;BME280;50072;50.678;13.938;2023-04-08T09:08:35;100086.22;;;8.85;71.67
63903;BME280;50072;50.678;13.938;2023-04-08T09:11:12;100084.38;;;8.90;72.37
63903;BME280;50072;50.678;13.938;2023-04-08T09:13:40;100085.16;;;9.01;72.59
63903;BME280;50072;50.678;13.938;2023-04-08T09:16:09;100087.72;;;9.07;72.23
63903;BME280;50072;50.678;13.938;2023-04-08T09:18:37;100096.63;;;9.09;72.20
63903;BME280;50072;50.678;13.938;2023-04-08T09:21:05;100099.22;;;9.14;71.90
63903;BME280;50072;50.678;13.938;2023-04-08T09:23:51;100099.91;;;9.30;71.98
63903;BME280;50072;50.678;13.938;2023-04-08T09:26:23;100093.41;;;9.51;72.43
63903;BME280;50072;50.678;13.938;2023-04-08T09:29:08;100102.75;;;9.81;69.01
63903;BME280;50072;50.678;13.938;2023-04-08T09:31:38;100098.16;;;9.91;67.68
63903;BME280;50072;50.678;13.938;2023-04-08T09:34:14;100099.03;;;9.92;67.12
63903;BME280;50072;50.678;13.938;2023-04-08T09:36:42;100097.13;;;10.00;66.95
63903;BME280;50072;50.678;13.938;2023-04-08T09:39:11;100089.03;;;10.05;66.39
63903;BME280;50072;50.678;13.938;2023-04-08T09:41:47;100095.03;;;10.21;65.92
63903;BME280;50072;50.678;13.938;2023-04-08T09:44:14;100100.13;;;10.36;63.37
63903;BME280;50072;50.678;13.938;2023-04-08T09:49:36;100097.22;;;10.97;63.27
63903;BME280;50072;50.678;13.938;2023-04-08T09:52:09;100095.31;;;11.46;63.92
63903;BME280;50072;50.678;13.938;2023-04-08T09:55:04;100097.50;;;11.69;61.97
63903;BME280;50072;50.678;13.938;2023-04-08T10:00:14;100103.13;;;11.56;60.52
63903;BME280;50072;50.678;13.938;2023-04-08T10:02:56;100099.63;;;11.54;60.46
63903;BME280;50072;50.678;13.938;2023-04-08T10:05:37;100094.38;;;11.48;60.55
63903;BME280;50072;50.678;13.938;2023-04-08T10:08:06;100094.41;;;11.87;59.78
63903;BME280;50072;50.678;13.938;2023-04-08T10:10:37;100093.69;;;12.87;56.74
63903;BME280;50072;50.678;13.938;2023-04-08T10:13:06;100091.69;;;13.85;53.88
63903;BME280;50072;50.678;13.938;2023-04-08T10:15:34;100081.63;;;14.97;51.67
63903;BME280;50072;50.678;13.938;2023-04-08T10:25:36;100086.91;;;15.71;46.52
63903;BME280;50072;50.678;13.938;2023-04-08T10:36:09;100098.78;;;14.16;48.59
63903;BME280;50072;50.678;13.938;2023-04-08T10:38:38;100099.16;;;13.77;49.52
63903;BME280;50072;50.678;13.938;2023-04-08T10:41:04;100093.28;;;13.64;50.52
63903;BME280;50072;50.678;13.938;2023-04-08T10:43:34;100091.47;;;13.64;51.41
63903;BME280;50072;50.678;13.938;2023-04-08T10:46:03;100084.75;;;13.78;50.89
63903;BME280;50072;50.678;13.938;2023-04-08T10:48:29;100087.34;;;14.36;48.73
63903;BME280;50072;50.678;13.938;2023-04-08T10:51:00;100087.75;;;15.02;47.30
63903;BME280;50072;50.678;13.938;2023-04-08T10:53:34;100086.75;;;16.43;45.04
63903;BME280;50072;50.678;13.938;2023-04-08T10:56:08;100080.56;;;16.41;44.67
63903;BME280;50072;50.678;13.938;2023-04-08T10:58:48;100084.88;;;16.02;45.38
63903;BME280;50072;50.678;13.938;2023-04-08T11:01:17;100080.19;;;15.36;45.78
63903;BME280;50072;50.678;13.938;2023-04-08T11:03:43;100090.69;;;14.96;46.68
63903;BME280;50072;50.678;13.938;2023-04-08T11:06:11;100083.38;;;14.48;47.03
63903;BME280;50072;50.678;13.938;2023-04-08T11:08:38;100099.50;;;13.94;48.56
63903;BME280;50072;50.678;13.938;2023-04-08T11:11:05;100092.56;;;13.57;50.12
63903;BME280;50072;50.678;13.938;2023-04-08T11:13:41;100086.50;;;13.51;51.07
63903;BME280;50072;50.678;13.938;2023-04-08T11:16:10;100083.53;;;14.70;49.05
63903;BME280;50072;50.678;13.938;2023-04-08T11:18:39;100087.97;;;14.44;49.67
63903;BME280;50072;50.678;13.938;2023-04-08T11:21:09;100084.88;;;14.82;49.24
63903;BME280;50072;50.678;13.938;2023-04-08T11:23:36;100099.19;;;14.84;49.15
63903;BME280;50072;50.678;13.938;2023-04-08T11:26:04;100098.34;;;14.30;48.87
63903;BME280;50072;50.678;13.938;2023-04-08T11:28:30;100093.78;;;14.04;50.46
63903;BME280;50072;50.678;13.938;2023-04-08T11:30:58;100087.38;;;15.37;46.64
63903;BME280;50072;50.678;13.938;2023-04-08T11:33:25;100093.25;;;14.74;47.73
63903;BME280;50072;50.678;13.938;2023-04-08T11:35:54;100099.28;;;15.06;47.21
63903;BME280;50072;50.678;13.938;2023-04-08T11:38:23;100094.28;;;14.70;48.19
63903;BME280;50072;50.678;13.938;2023-04-08T11:40:58;100087.63;;;14.55;49.33
63903;BME280;50072;50.678;13.938;2023-04-08T11:43:25;100093.94;;;14.81;48.02
63903;BME280;50072;50.678;13.938;2023-04-08T11:45:52;100088.19;;;18.64;41.55
63903;BME280;50072;50.678;13.938;2023-04-08T11:48:18;100089.00;;;19.01;38.89
63903;BME280;50072;50.678;13.938;2023-04-08T11:50:44;100088.16;;;19.66;36.88
63903;BME280;50072;50.678;13.938;2023-04-08T11:53:21;100087.47;;;17.68;39.54
63903;BME280;50072;50.678;13.938;2023-04-08T11:55:50;100086.00;;;16.82;41.33
63903;BME280;50072;50.678;13.938;2023-04-08T11:58:18;100082.63;;;16.34;43.33
63903;BME280;50072;50.678;13.938;2023-04-08T12:00:46;100089.88;;;16.33;44.01
63903;BME280;50072;50.678;13.938;2023-04-08T12:03:12;100093.66;;;16.50;43.18
63903;BME280;50072;50.678;13.938;2023-04-08T12:05:39;100087.59;;;16.65;43.43
63903;BME280;50072;50.678;13.938;2023-04-08T12:08:07;100093.19;;;21.99;34.41
63903;BME280;50072;50.678;13.938;2023-04-08T12:10:33;100083.63;;;23.77;31.52
63903;BME280;50072;50.678;13.938;2023-04-08T12:12:59;100090.56;;;24.07;29.85
63903;BME280;50072;50.678;13.938;2023-04-08T12:15:25;100089.06;;;21.65;32.30
63903;BME280;50072;50.678;13.938;2023-04-08T12:17:52;100084.44;;;19.35;34.41
63903;BME280;50072;50.678;13.938;2023-04-08T12:20:18;100095.38;;;17.92;36.64
63903;BME280;50072;50.678;13.938;2023-04-08T12:22:45;100091.56;;;21.82;33.31
63903;BME280;50072;50.678;13.938;2023-04-08T12:25:11;100083.63;;;25.33;26.81
63903;BME280;50072;50.678;13.938;2023-04-08T12:27:38;100087.94;;;26.48;25.11
63903;BME280;50072;50.678;13.938;2023-04-08T12:30:04;100092.63;;;27.53;23.75
63903;BME280;50072;50.678;13.938;2023-04-08T12:32:32;100089.13;;;28.22;22.38
63903;BME280;50072;50.678;13.938;2023-04-08T12:34:58;100092.75;;;29.40;21.00
63903;BME280;50072;50.678;13.938;2023-04-08T12:37:25;100092.34;;;30.01;20.46
63903;BME280;50072;50.678;13.938;2023-04-08T12:39:51;100099.41;;;31.47;19.48
63903;BME280;50072;50.678;13.938;2023-04-08T12:42:17;100092.81;;;31.40;19.63
63903;BME280;50072;50.678;13.938;2023-04-08T12:44:43;100092.81;;;27.92;22.04
63903;BME280;50072;50.678;13.938;2023-04-08T12:47:09;100096.34;;;24.15;26.48
63903;BME280;50072;50.678;13.938;2023-04-08T12:49:35;100099.66;;;21.55;30.19
63903;BME280;50072;50.678;13.938;2023-04-08T12:52:02;100093.63;;;19.98;31.95
63903;BME280;50072;50.678;13.938;2023-04-08T12:54:28;100104.34;;;18.48;34.46
63903;BME280;50072;50.678;13.938;2023-04-08T12:56:54;100102.38;;;17.39;36.23
63903;BME280;50072;50.678;13.938;2023-04-08T12:59:21;100098.41;;;16.86;37.19
63903;BME280;50072;50.678;13.938;2023-04-08T13:01:47;100093.13;;;16.62;38.37
63903;BME280;50072;50.678;13.938;2023-04-08T13:04:13;100097.03;;;17.37;36.95
63903;BME280;50072;50.678;13.938;2023-04-08T13:06:40;100095.66;;;17.48;37.96
63903;BME280;50072;50.678;13.938;2023-04-08T13:09:06;100091.78;;;16.72;38.04
63903;BME280;50072;50.678;13.938;2023-04-08T13:11:34;100095.63;;;15.80;39.92
63903;BME280;50072;50.678;13.938;2023-04-08T13:14:00;100097.44;;;15.32;41.19
63903;BME280;50072;50.678;13.938;2023-04-08T13:16:26;100102.41;;;14.95;41.86
63903;BME280;50072;50.678;13.938;2023-04-08T13:18:59;100099.88;;;14.37;43.05
63903;BME280;50072;50.678;13.938;2023-04-08T13:21:31;100108.75;;;13.86;44.51
63903;BME280;50072;50.678;13.938;2023-04-08T13:23:58;100114.97;;;13.58;45.71
63903;BME280;50072;50.678;13.938;2023-04-08T13:26:28;100107.59;;;13.33;45.78
63903;BME280;50072;50.678;13.938;2023-04-08T13:28:55;100115.31;;;13.14;46.93
63903;BME280;50072;50.678;13.938;2023-04-08T13:31:24;100109.38;;;13.03;47.36